Time;durP1;ratioP1;P1;durP2;ratioP2;P2;SDS_P1;SDS_P2;PMS_P1;PMS_P2;Temp;Humidity;BMP_temperature;BMP_pressure;BME280_temperature;BME280_humidity;BME280_pressure;Samples;Min_cycle;Max_cycle;Signal;HPM_P1;HPM_P2
2023/03/28 00:01:51;;;;;;;;;;;;;;;;;;5099767;28;1066;-74
2023/03/28 00:04:21;;;;;;;;;;;;;;;;;;5102832;28;1208;-72
2023/03/28 00:06:46;;;;;;;;;;;;;;;;;;5083415;28;1261;-73
2023/03/28 00:09:12;;;;;;;;;;;;;;;;;;5102236;28;1098;-73
2023/03/28 00:11:37;;;;;;;;;;;;;;;;;;5101191;28;970;-73
2023/03/28 00:14:02;;;;;;;;;;;;;;;;;;5105687;28;1002;-72
2023/03/28 00:16:31;;;;;;;;;;;;;;;;;;5110133;28;1290;-73
2023/03/28 00:18:59;;;;;;;;;;;;;;;;;;5110878;28;1909;-73
2023/03/28 00:21:28;;;;;;;;;;;;;;;;;;5107510;28;1198;-72
2023/03/28 00:23:55;;;;;;;;;;;;;;;;;;5117655;28;1163;-72
2023/03/28 00:26:23;;;;;;;;;;;;;;;;;;5121983;28;1178;-73
2023/03/28 00:28:48;;;;;;;;;;;;;;;;;;5123891;28;871;-73
2023/03/28 00:31:14;;;;;;;;;;;;;;;;;;5118437;28;1290;-73
2023/03/28 00:33:40;;;;;;;;;;;;;;;;;;5115449;28;1331;-73
2023/03/28 00:36:09;;;;;;;;;;;;;;;;;;5117211;28;840;-73
2023/03/28 00:38:34;;;;;;;;;;;;;;;;;;5117648;28;1965;-73
2023/03/28 00:41:00;;;;;;;;;;;;;;;;;;5106146;28;1201;-72
2023/03/28 00:43:36;;;;;;;;;;;;;;;;;;5132351;28;1141;-72
2023/03/28 00:46:02;;;;;;;;;;;;;;;;;;5116454;28;1243;-73
2023/03/28 00:48:28;;;;;;;;;;;;;;;;;;5117365;28;1043;-73
2023/03/28 00:51:02;;;;;;;;;;;;;;;;;;5116211;28;916;-74
2023/03/28 00:53:30;;;;;;;;;;;;;;;;;;5117117;28;852;-73
2023/03/28 00:55:58;;;;;;;;;;;;;;;;;;5118034;28;914;-74
2023/03/28 00:58:26;;;;;;;;;;;;;;;;;;5117117;28;1917;-74
2023/03/28 01:00:53;;;;;;;;;;;;;;;;;;5117636;28;836;-74
2023/03/28 01:03:21;;;;;;;;;;;;;;;;;;5116314;28;1272;-74
2023/03/28 01:05:46;;;;;;;;;;;;;;;;;;5122397;28;883;-74
2023/03/28 01:08:20;;;;;;;;;;;;;;;;;;5125327;28;995;-74
2023/03/28 01:10:46;;;;;;;;;;;;;;;;;;5121110;28;1030;-74
2023/03/28 01:13:13;;;;;;;;;;;;;;;;;;5115642;28;868;-74
2023/03/28 01:15:39;;;;;;;;;;;;;;;;;;5113947;28;1125;-74
2023/03/28 01:18:09;;;;;;;;;;;;;;;;;;5114250;28;1975;-74
2023/03/28 01:20:53;;;;;;;;;;;;;;;;;;5115396;27;863;-74
2023/03/28 01:23:31;;;;;;;;;;;;;;;;;;5115935;28;824;-74
2023/03/28 01:26:08;;;;;;;;;;;;;;;;;;5113887;28;1157;-74
2023/03/28 01:28:40;;;;;;;;;;;;;;;;;;5113313;28;1071;-74
2023/03/28 01:31:24;;;;;;;;;;;;;;;;;;5114859;28;847;-74
2023/03/28 01:34:11;;;;;;;;;;;;;;;;;;5113788;28;1031;-74
2023/03/28 01:36:40;;;;;;;;;;;;;;;;;;5113612;28;1205;-74
2023/03/28 01:39:07;;;;;;;;;;;;;;;;;;5112934;28;1910;-74
2023/03/28 01:41:37;;;;;;;;;;;;;;;;;;5114963;28;1261;-74
2023/03/28 01:44:08;;;;;;;;;;;;;;;;;;5115000;28;1040;-74
2023/03/28 01:46:33;;;;;;;;;;;;;;;;;;5113015;28;1099;-74
2023/03/28 01:49:19;;;;;;;;;;;;;;;;;;5112860;28;1268;-74
2023/03/28 01:51:44;;;;;;;;;;;;;;;;;;5113898;28;1090;-74
2023/03/28 01:54:29;;;;;;;;;;;;;;;;;;5114119;28;808;-74
2023/03/28 01:57:09;;;;;;;;;;;;;;;;;;5112563;28;1185;-73
2023/03/28 01:59:41;;;;;;;;;;;;;;;;;;5113124;28;1977;-74
2023/03/28 02:02:28;;;;;;;;;;;;;;;;;;5112666;28;1149;-74
2023/03/28 02:04:56;;;;;;;;;;;;;;;;;;5112568;28;1348;-74
2023/03/28 02:07:23;;;;;;;;;;;;;;;;;;5114076;28;922;-74
2023/03/28 02:09:51;;;;;;;;;;;;;;;;;;5114544;28;785;-74
2023/03/28 02:12:20;;;;;;;;;;;;;;;;;;5112432;28;1182;-74
2023/03/28 02:14:46;;;;;;;;;;;;;;;;;;5112872;28;1399;-74
2023/03/28 02:17:14;;;;;;;;;;;;;;;;;;5112884;28;1220;-74
2023/03/28 02:19:44;;;;;;;;;;;;;;;;;;5114342;28;1956;-74
2023/03/28 02:22:15;;;;;;;;;;;;;;;;;;5113121;28;1308;-74
2023/03/28 02:24:41;;;;;;;;;;;;;;;;;;5115155;28;887;-74
2023/03/28 02:27:07;;;;;;;;;;;;;;;;;;5113306;28;1181;-73
2023/03/28 02:29:34;;;;;;;;;;;;;;;;;;5096330;28;1150;-73
2023/03/28 02:31:59;;;;;;;;;;;;;;;;;;5114068;28;952;-73
2023/03/28 02:34:25;;;;;;;;;;;;;;;;;;5112499;28;939;-74
2023/03/28 02:36:53;;;;;;;;;;;;;;;;;;5114170;28;927;-74
2023/03/28 02:39:22;;;;;;;;;;;;;;;;;;5113286;28;1909;-74
2023/03/28 02:41:59;;;;;;;;;;;;;;;;;;5114044;28;1159;-74
2023/03/28 02:44:30;;;;;;;;;;;;;;;;;;5113801;28;876;-74
2023/03/28 02:47:08;;;;;;;;;;;;;;;;;;5112195;28;1122;-74
2023/03/28 02:49:41;;;;;;;;;;;;;;;;;;5112016;28;1049;-73
2023/03/28 02:52:19;;;;;;;;;;;;;;;;;;5113578;28;991;-74
2023/03/28 02:54:55;;;;;;;;;;;;;;;;;;5113182;28;990;-74
2023/03/28 02:57:26;;;;;;;;;;;;;;;;;;5112881;28;864;-74
2023/03/28 03:00:01;;;;;;;;;;;;;;;;;;5113166;28;954;-74
2023/03/28 03:02:27;;;;;;;;;;;;;;;;;;5112737;28;851;-74
2023/03/28 03:04:56;;;;;;;;;;;;;;;;;;5111453;28;1373;-74
2023/03/28 03:07:22;;;;;;;;;;;;;;;;;;5111115;28;1316;-74
2023/03/28 03:09:52;;;;;;;;;;;;;;;;;;5112284;28;1014;-74
2023/03/28 03:12:19;;;;;;;;;;;;;;;;;;5112742;28;892;-74
2023/03/28 03:14:44;;;;;;;;;;;;;;;;;;5112666;28;914;-74
2023/03/28 03:17:10;;;;;;;;;;;;;;;;;;5112341;28;843;-74
2023/03/28 03:19:35;;;;;;;;;;;;;;;;;;5094365;28;1906;-74
2023/03/28 03:22:01;;;;;;;;;;;;;;;;;;5112163;28;841;-74
2023/03/28 03:24:27;;;;;;;;;;;;;;;;;;5111255;28;1150;-74
2023/03/28 03:26:52;;;;;;;;;;;;;;;;;;5111767;28;1198;-74
2023/03/28 03:29:17;;;;;;;;;;;;;;;;;;5111297;28;1169;-74
2023/03/28 03:31:43;;;;;;;;;;;;;;;;;;5111851;28;897;-74
2023/03/28 03:34:08;;;;;;;;;;;;;;;;;;5111721;28;1154;-73
2023/03/28 03:36:34;;;;;;;;;;;;;;;;;;5094683;28;1199;-74
2023/03/28 03:38:59;;;;;;;;;;;;;;;;;;5094873;28;1961;-74
2023/03/28 03:41:24;;;;;;;;;;;;;;;;;;5111040;28;1213;-73
2023/03/28 03:43:50;;;;;;;;;;;;;;;;;;5112172;28;1417;-74
2023/03/28 03:46:15;;;;;;;;;;;;;;;;;;5111818;28;1276;-74
2023/03/28 03:48:41;;;;;;;;;;;;;;;;;;5095067;28;1292;-74
2023/03/28 03:51:07;;;;;;;;;;;;;;;;;;5112127;28;1142;-73
2023/03/28 03:53:33;;;;;;;;;;;;;;;;;;5113363;28;844;-73
2023/03/28 03:55:59;;;;;;;;;;;;;;;;;;5111291;28;1260;-74
2023/03/28 03:58:25;;;;;;;;;;;;;;;;;;5112209;28;1977;-73
2023/03/28 04:00:50;;;;;;;;;;;;;;;;;;5094238;28;1533;-73
2023/03/28 04:03:16;;;;;;;;;;;;;;;;;;5111674;28;883;-74
2023/03/28 04:05:41;;;;;;;;;;;;;;;;;;5095096;28;1470;-74
2023/03/28 04:08:08;;;;;;;;;;;;;;;;;;5114058;28;898;-73
2023/03/28 04:10:33;;;;;;;;;;;;;;;;;;5112217;28;1319;-74
2023/03/28 04:12:58;;;;;;;;;;;;;;;;;;5094687;28;1258;-74
2023/03/28 04:15:24;;;;;;;;;;;;;;;;;;5112234;28;820;-72
2023/03/28 04:17:51;;;;;;;;;;;;;;;;;;5112841;28;1905;-73
2023/03/28 04:20:19;;;;;;;;;;;;;;;;;;5113207;28;836;-73
2023/03/28 04:22:47;;;;;;;;;;;;;;;;;;5094920;28;1439;-73
2023/03/28 04:25:12;;;;;;;;;;;;;;;;;;5111163;28;1257;-73
2023/03/28 04:27:38;;;;;;;;;;;;;;;;;;5111065;28;1315;-73
2023/03/28 04:30:06;;;;;;;;;;;;;;;;;;5111658;28;1266;-73
2023/03/28 04:32:34;;;;;;;;;;;;;;;;;;5112865;28;920;-73
2023/03/28 04:35:02;;;;;;;;;;;;;;;;;;5094878;28;1312;-73
2023/03/28 04:37:27;;;;;;;;;;;;;;;;;;5113678;28;1896;-73
2023/03/28 04:39:53;;;;;;;;;;;;;;;;;;5115732;28;1036;-73
2023/03/28 04:42:18;;;;;;;;;;;;;;;;;;5096765;28;1387;-73
2023/03/28 04:44:43;;;;;;;;;;;;;;;;;;5115533;28;971;-73
2023/03/28 04:47:10;;;;;;;;;;;;;;;;;;5115725;28;860;-73
2023/03/28 04:49:39;;;;;;;;;;;;;;;;;;5097308;28;1210;-73
2023/03/28 04:52:04;;;;;;;;;;;;;;;;;;5114276;28;1280;-73
2023/03/28 04:54:30;;;;;;;;;;;;;;;;;;5096863;28;1210;-73
2023/03/28 04:56:55;;;;;;;;;;;;;;;;;;5097449;28;1202;-73
2023/03/28 04:59:20;;;;;;;;;;;;;;;;;;5115310;28;1905;-73
2023/03/28 05:01:49;;;;;;;;;;;;;;;;;;5114310;28;1227;-73
2023/03/28 05:04:16;;;;;;;;;;;;;;;;;;5113812;28;1289;-73
2023/03/28 05:06:42;;;;;;;;;;;;;;;;;;5116029;28;867;-73
2023/03/28 05:09:07;;;;;;;;;;;;;;;;;;5096962;28;1316;-73
2023/03/28 05:11:32;;;;;;;;;;;;;;;;;;5097039;28;1154;-73
2023/03/28 05:13:58;;;;;;;;;;;;;;;;;;5114294;28;1122;-73
2023/03/28 05:16:23;;;;;;;;;;;;;;;;;;5113954;28;1014;-73
2023/03/28 05:18:48;;;;;;;;;;;;;;;;;;5115001;28;1957;-73
2023/03/28 05:21:14;;;;;;;;;;;;;;;;;;5114575;28;881;-73
2023/03/28 05:23:39;;;;;;;;;;;;;;;;;;5113649;28;919;-73
2023/03/28 05:26:05;;;;;;;;;;;;;;;;;;5096578;28;1379;-73
2023/03/28 05:28:30;;;;;;;;;;;;;;;;;;5096004;28;1332;-73
2023/03/28 05:30:56;;;;;;;;;;;;;;;;;;5096466;28;1197;-73
2023/03/28 05:33:21;;;;;;;;;;;;;;;;;;5114549;28;1003;-73
2023/03/28 05:35:47;;;;;;;;;;;;;;;;;;5114498;28;844;-73
2023/03/28 05:38:13;;;;;;;;;;;;;;;;;;5113569;28;1898;-73
2023/03/28 05:40:38;;;;;;;;;;;;;;;;;;5114320;28;1128;-73
2023/03/28 05:43:04;;;;;;;;;;;;;;;;;;5115148;28;856;-73
2023/03/28 05:45:29;;;;;;;;;;;;;;;;;;5113408;28;1406;-73
2023/03/28 05:47:55;;;;;;;;;;;;;;;;;;5112693;28;876;-73
2023/03/28 05:50:21;;;;;;;;;;;;;;;;;;5113719;28;1237;-73
2023/03/28 05:52:46;;;;;;;;;;;;;;;;;;5114130;28;1257;-73
2023/03/28 05:55:12;;;;;;;;;;;;;;;;;;5115649;28;876;-73
2023/03/28 05:57:37;;;;;;;;;;;;;;;;;;5113636;28;1905;-74
2023/03/28 06:00:12;;;;;;;;;;;;;;;;;;5114616;28;1177;-73
2023/03/28 06:02:39;;;;;;;;;;;;;;;;;;5117941;27;935;-73
2023/03/28 06:05:06;;;;;;;;;;;;;;;;;;5100522;28;1213;-74
2023/03/28 06:07:31;;;;;;;;;;;;;;;;;;5115121;28;1194;-72
2023/03/28 06:09:57;;;;;;;;;;;;;;;;;;5114364;28;844;-74
2023/03/28 06:12:22;;;;;;;;;;;;;;;;;;5114024;28;947;-74
2023/03/28 06:14:47;;;;;;;;;;;;;;;;;;5114306;28;900;-73
2023/03/28 06:17:13;;;;;;;;;;;;;;;;;;5113390;28;856;-75
2023/03/28 06:19:38;;;;;;;;;;;;;;;;;;5095845;28;1913;-74
2023/03/28 06:22:03;;;;;;;;;;;;;;;;;;5113752;28;1001;-75
2023/03/28 06:24:29;;;;;;;;;;;;;;;;;;5094263;28;1218;-75
2023/03/28 06:26:54;;;;;;;;;;;;;;;;;;5114411;28;836;-75
2023/03/28 06:29:20;;;;;;;;;;;;;;;;;;5114538;28;884;-75
2023/03/28 06:31:46;;;;;;;;;;;;;;;;;;5114231;28;800;-74
2023/03/28 06:34:11;;;;;;;;;;;;;;;;;;5114269;28;907;-75
2023/03/28 06:36:37;;;;;;;;;;;;;;;;;;5113022;28;923;-75
2023/03/28 06:39:02;;;;;;;;;;;;;;;;;;5092351;28;1965;-74
2023/03/28 06:41:27;;;;;;;;;;;;;;;;;;5111579;28;1409;-74
2023/03/28 06:43:53;;;;;;;;;;;;;;;;;;5094814;28;1276;-75
2023/03/28 06:46:20;;;;;;;;;;;;;;;;;;5112073;28;1158;-74
2023/03/28 06:48:45;;;;;;;;;;;;;;;;;;5111777;28;939;-74
2023/03/28 06:51:11;;;;;;;;;;;;;;;;;;5112080;28;1308;-74
2023/03/28 06:53:37;;;;;;;;;;;;;;;;;;5095113;28;1177;-75
2023/03/28 06:56:02;;;;;;;;;;;;;;;;;;5112058;28;1193;-73
2023/03/28 06:58:28;;;;;;;;;;;;;;;;;;5094401;28;1914;-73
2023/03/28 07:00:53;;;;;;;;;;;;;;;;;;5111642;28;1210;-73
2023/03/28 07:03:18;;;;;;;;;;;;;;;;;;5110696;28;1178;-73
2023/03/28 07:05:44;;;;;;;;;;;;;;;;;;5110758;28;1266;-73
2023/03/28 07:08:10;;;;;;;;;;;;;;;;;;5111769;28;1217;-72
2023/03/28 07:10:36;;;;;;;;;;;;;;;;;;5112783;28;820;-73
2023/03/28 07:13:02;;;;;;;;;;;;;;;;;;5095086;28;1424;-73
2023/03/28 07:15:27;;;;;;;;;;;;;;;;;;5111448;28;1414;-74
2023/03/28 07:17:53;;;;;;;;;;;;;;;;;;5112552;28;1976;-73
2023/03/28 07:20:21;;;;;;;;;;;;;;;;;;5110526;28;995;-73
2023/03/28 07:22:46;;;;;;;;;;;;;;;;;;5112243;28;808;-73
2023/03/28 07:25:12;;;;;;;;;;;;;;;;;;5112747;28;958;-73
2023/03/28 07:27:37;;;;;;;;;;;;;;;;;;5111557;28;793;-73
2023/03/28 07:30:03;;;;;;;;;;;;;;;;;;5113315;28;895;-73
2023/03/28 07:32:28;;;;;;;;;;;;;;;;;;5112960;28;1090;-73
2023/03/28 07:34:54;;;;;;;;;;;;;;;;;;5095532;28;1178;-73
2023/03/28 07:37:19;;;;;;;;;;;;;;;;;;5112183;28;1142;-73
2023/03/28 07:39:45;;;;;;;;;;;;;;;;;;5093866;28;1977;-73
2023/03/28 07:42:11;;;;;;;;;;;;;;;;;;5101819;28;1254;-73
2023/03/28 07:44:37;;;;;;;;;;;;;;;;;;5100045;28;1163;-73
2023/03/28 07:47:03;;;;;;;;;;;;;;;;;;5108121;28;1324;-73
2023/03/28 07:49:29;;;;;;;;;;;;;;;;;;5112614;28;918;-73
2023/03/28 07:51:55;;;;;;;;;;;;;;;;;;5094366;28;1266;-73
2023/03/28 07:54:20;;;;;;;;;;;;;;;;;;5112649;28;836;-72
2023/03/28 07:56:46;;;;;;;;;;;;;;;;;;5087549;28;1305;-73
2023/03/28 07:59:12;;;;;;;;;;;;;;;;;;5102034;28;1886;-71
2023/03/28 08:01:38;;;;;;;;;;;;;;;;;;5105193;28;1428;-72
2023/03/28 08:04:04;;;;;;;;;;;;;;;;;;5112864;28;888;-73
2023/03/28 08:06:32;;;;;;;;;;;;;;;;;;5111388;28;1309;-73
2023/03/28 08:08:58;;;;;;;;;;;;;;;;;;5111427;28;1395;-73
2023/03/28 08:11:23;;;;;;;;;;;;;;;;;;5114085;28;839;-73
2023/03/28 08:13:48;;;;;;;;;;;;;;;;;;5098473;28;1219;-73
2023/03/28 08:16:14;;;;;;;;;;;;;;;;;;5115222;28;1153;-73
2023/03/28 08:18:39;;;;;;;;;;;;;;;;;;5097840;28;1953;-72
2023/03/28 08:21:05;;;;;;;;;;;;;;;;;;5115393;28;1209;-72
2023/03/28 08:23:30;;;;;;;;;;;;;;;;;;5114966;28;980;-72
2023/03/28 08:26:03;;;;;;;;;;;;;;;;;;5114916;28;891;-73
2023/03/28 08:28:30;;;;;;;;;;;;;;;;;;5116369;28;863;-73
2023/03/28 08:30:55;;;;;;;;;;;;;;;;;;5114510;28;1316;-73
2023/03/28 08:33:20;;;;;;;;;;;;;;;;;;5114928;28;1249;-73
2023/03/28 08:35:46;;;;;;;;;;;;;;;;;;5115618;28;832;-73
2023/03/28 08:38:12;;;;;;;;;;;;;;;;;;5114332;28;1961;-73
2023/03/28 08:40:41;;;;;;;;;;;;;;;;;;5115889;28;932;-73
2023/03/28 08:43:22;;;;;;;;;;;;;;;;;;5115499;28;1257;-72
2023/03/28 08:45:56;;;;;;;;;;;;;;;;;;5114460;28;1261;-72
2023/03/28 08:48:21;;;;;;;;;;;;;;;;;;5114645;28;1328;-73
2023/03/28 08:50:46;;;;;;;;;;;;;;;;;;5113954;28;1329;-72
2023/03/28 08:53:37;;;;;;;;;;;;;;;;;;5114623;28;1293;-72
2023/03/28 08:56:05;;;;;;;;;;;;;;;;;;5115675;28;883;-73
2023/03/28 08:58:51;;;;;;;;;;;;;;;;;;5097409;28;1901;-73
2023/03/28 09:01:20;;;;;;;;;;;;;;;;;;5115431;28;883;-72
2023/03/28 09:03:48;;;;;;;;;;;;;;;;;;5115186;28;1068;-72
2023/03/28 09:06:25;;;;;;;;;;;;;;;;;;5115253;28;899;-71
2023/03/28 09:09:03;;;;;;;;;;;;;;;;;;5113583;28;1292;-73
2023/03/28 09:11:29;;;;;;;;;;;;;;;;;;5114204;28;1217;-73
2023/03/28 09:13:55;;;;;;;;;;;;;;;;;;5113921;28;1158;-73
2023/03/28 09:16:26;;;;;;;;;;;;;;;;;;5115430;28;891;-72
2023/03/28 09:18:59;;;;;;;;;;;;;;;;;;5114269;28;1980;-73
2023/03/28 09:21:24;;;;;;;;;;;;;;;;;;5114741;28;1320;-72
2023/03/28 09:23:56;;;;;;;;;;;;;;;;;;5114174;28;1158;-72
2023/03/28 09:26:24;;;;;;;;;;;;;;;;;;5116232;28;950;-73
2023/03/28 09:29:00;;;;;;;;;;;;;;;;;;5113700;28;1591;-72
2023/03/28 09:31:29;;;;;;;;;;;;;;;;;;5115076;28;915;-73
2023/03/28 09:33:57;;;;;;;;;;;;;;;;;;5115456;28;1015;-73
2023/03/28 09:36:26;;;;;;;;;;;;;;;;;;5114015;28;1280;-73
2023/03/28 09:38:53;;;;;;;;;;;;;;;;;;5112884;28;1911;-73
2023/03/28 09:41:20;;;;;;;;;;;;;;;;;;5115000;28;1352;-73
2023/03/28 09:43:54;;;;;;;;;;;;;;;;;;5113195;28;1268;-72
2023/03/28 09:46:19;;;;;;;;;;;;;;;;;;5113926;28;1253;-72
2023/03/28 09:48:44;;;;;;;;;;;;;;;;;;5113585;28;1173;-73
2023/03/28 09:51:17;;;;;;;;;;;;;;;;;;5115585;28;970;-73
2023/03/28 09:53:42;;;;;;;;;;;;;;;;;;5114009;28;1202;-73
2023/03/28 09:56:23;;;;;;;;;;;;;;;;;;5114232;28;911;-73
2023/03/28 09:58:53;;;;;;;;;;;;;;;;;;5114166;28;1965;-74
2023/03/28 10:01:37;;;;;;;;;;;;;;;;;;5116215;28;766;-74
2023/03/28 10:04:08;;;;;;;;;;;;;;;;;;5118564;28;900;-73
2023/03/28 10:06:34;;;;;;;;;;;;;;;;;;5121038;28;1321;-73
2023/03/28 10:09:11;;;;;;;;;;;;;;;;;;5123173;28;1246;-73
2023/03/28 10:11:46;;;;;;;;;;;;;;;;;;5119992;28;1303;-73
2023/03/28 10:14:27;;;;;;;;;;;;;;;;;;5117869;28;1300;-73
2023/03/28 10:16:52;;;;;;;;;;;;;;;;;;5117787;28;1304;-73
2023/03/28 10:19:21;;;;;;;;;;;;;;;;;;5117299;28;1886;-73
2023/03/28 10:21:47;;;;;;;;;;;;;;;;;;5118055;28;1241;-73
2023/03/28 10:24:15;;;;;;;;;;;;;;;;;;5118513;28;1149;-73
2023/03/28 10:26:41;;;;;;;;;;;;;;;;;;5119106;28;1267;-74
2023/03/28 10:29:09;;;;;;;;;;;;;;;;;;5110420;28;1119;-72
2023/03/28 10:31:37;;;;;;;;;;;;;;;;;;5117605;28;1079;-72
2023/03/28 10:34:02;;;;;;;;;;;;;;;;;;5135700;28;915;-72
2023/03/28 10:36:32;;;;;;;;;;;;;;;;;;5132393;28;967;-73
2023/03/28 10:38:58;;;;;;;;;;;;;;;;;;5122203;27;1874;-72
2023/03/28 10:41:27;;;;;;;;;;;;;;;;;;5122112;28;938;-72
2023/03/28 10:43:54;;;;;;;;;;;;;;;;;;5113522;28;1205;-72
2023/03/28 10:46:19;;;;;;;;;;;;;;;;;;5113320;28;1133;-73
2023/03/28 10:48:47;;;;;;;;;;;;;;;;;;5113788;28;859;-73
2023/03/28 10:51:15;;;;;;;;;;;;;;;;;;5115139;28;856;-72
2023/03/28 10:53:59;;;;;;;;;;;;;;;;;;5114143;28;919;-72
2023/03/28 10:56:25;;;;;;;;;;;;;;;;;;5112941;28;1277;-72
2023/03/28 10:58:56;;;;;;;;;;;;;;;;;;5113746;28;1882;-72
2023/03/28 11:01:31;;;;;;;;;;;;;;;;;;5114829;28;994;-72
2023/03/28 11:04:35;;;;;;;;;;;;;;;;;;5112816;28;1236;-72
2023/03/28 11:07:03;;;;;;;;;;;;;;;;;;5070695;28;1178;-73
2023/03/28 11:09:39;;;;;;;;;;;;;;;;;;5071031;28;951;-72
2023/03/28 11:12:13;;;;;;;;;;;;;;;;;;5084844;28;1167;-72
2023/03/28 11:14:41;;;;;;;;;;;;;;;;;;5112750;28;1233;-72
2023/03/28 11:17:16;;;;;;;;;;;;;;;;;;5112889;28;1176;-72
2023/03/28 11:19:50;;;;;;;;;;;;;;;;;;5112494;28;1905;-72
2023/03/28 11:22:21;;;;;;;;;;;;;;;;;;5112468;28;1269;-72
2023/03/28 11:24:55;;;;;;;;;;;;;;;;;;5112255;28;1170;-72
2023/03/28 11:27:21;;;;;;;;;;;;;;;;;;5113648;28;998;-72
2023/03/28 11:30:01;;;;;;;;;;;;;;;;;;5113280;28;836;-73
2023/03/28 11:32:48;;;;;;;;;;;;;;;;;;5110832;28;1197;-72
2023/03/28 11:35:14;;;;;;;;;;;;;;;;;;5112118;28;1285;-73
2023/03/28 11:37:45;;;;;;;;;;;;;;;;;;5111826;28;1335;-74
2023/03/28 11:40:17;;;;;;;;;;;;;;;;;;5112879;28;892;-73
2023/03/28 11:43:02;;;;;;;;;;;;;;;;;;5113087;28;1080;-73
2023/03/28 11:45:41;;;;;;;;;;;;;;;;;;5111419;28;1182;-72
2023/03/28 11:48:06;;;;;;;;;;;;;;;;;;5115805;28;1411;-74
2023/03/28 11:50:55;;;;;;;;;;;;;;;;;;5115299;28;1407;-73
2023/03/28 11:53:27;;;;;;;;;;;;;;;;;;5115490;28;1186;-73
2023/03/28 11:56:08;;;;;;;;;;;;;;;;;;5115376;28;1204;-73
2023/03/28 11:58:37;;;;;;;;;;;;;;;;;;5115621;28;1902;-73
2023/03/28 12:01:06;;;;;;;;;;;;;;;;;;5115183;28;1012;-73
2023/03/28 12:03:46;;;;;;;;;;;;;;;;;;5115357;28;1431;-73
2023/03/28 12:06:32;;;;;;;;;;;;;;;;;;5115004;28;1237;-73
2023/03/28 12:09:10;;;;;;;;;;;;;;;;;;5083435;28;1297;-73
2023/03/28 12:11:39;;;;;;;;;;;;;;;;;;5115105;28;1284;-73
2023/03/28 12:14:11;;;;;;;;;;;;;;;;;;5115191;28;1138;-73
2023/03/28 12:16:39;;;;;;;;;;;;;;;;;;5114903;28;1351;-73
2023/03/28 12:19:09;;;;;;;;;;;;;;;;;;5116181;28;1902;-73
2023/03/28 12:21:40;;;;;;;;;;;;;;;;;;5116668;28;804;-73
2023/03/28 12:24:19;;;;;;;;;;;;;;;;;;5116066;28;943;-73
2023/03/28 12:26:53;;;;;;;;;;;;;;;;;;5116539;28;820;-73
2023/03/28 12:29:24;;;;;;;;;;;;;;;;;;5116866;28;900;-73
2023/03/28 12:31:59;;;;;;;;;;;;;;;;;;5116506;28;1198;-74
2023/03/28 12:34:27;;;;;;;;;;;;;;;;;;5117561;28;1205;-73
2023/03/28 12:36:56;;;;;;;;;;;;;;;;;;5117637;28;1158;-73
2023/03/28 12:39:40;;;;;;;;;;;;;;;;;;5117861;28;1890;-74
2023/03/28 12:42:07;;;;;;;;;;;;;;;;;;5116667;28;1193;-75
2023/03/28 12:44:51;;;;;;;;;;;;;;;;;;5116166;28;1107;-73
2023/03/28 12:47:23;;;;;;;;;;;;;;;;;;5117160;28;844;-73
2023/03/28 12:49:50;;;;;;;;;;;;;;;;;;5114539;28;1241;-73
2023/03/28 12:52:22;;;;;;;;;;;;;;;;;;5115575;28;1301;-73
2023/03/28 12:55:14;;;;;;;;;;;;;;;;;;5116703;28;1009;-73
2023/03/28 12:57:50;;;;;;;;;;;;;;;;;;5122026;28;973;-73
2023/03/28 13:00:21;;;;;;;;;;;;;;;;;;5123409;28;1296;-73
2023/03/28 13:02:46;;;;;;;;;;;;;;;;;;5117269;28;883;-73
2023/03/28 13:05:17;;;;;;;;;;;;;;;;;;5115442;28;905;-73
2023/03/28 13:08:02;;;;;;;;;;;;;;;;;;5115507;28;914;-73
2023/03/28 13:10:40;;;;;;;;;;;;;;;;;;5114191;28;1209;-73
2023/03/28 13:13:24;;;;;;;;;;;;;;;;;;5116206;28;833;-73
2023/03/28 13:15:55;;;;;;;;;;;;;;;;;;5114755;28;1398;-73
2023/03/28 13:18:20;;;;;;;;;;;;;;;;;;5115419;28;1905;-73
2023/03/28 13:20:46;;;;;;;;;;;;;;;;;;5114720;28;1217;-73
2023/03/28 13:23:13;;;;;;;;;;;;;;;;;;5114437;28;1233;-72
2023/03/28 13:25:38;;;;;;;;;;;;;;;;;;5115498;28;994;-73
2023/03/28 13:28:10;;;;;;;;;;;;;;;;;;5114291;28;1319;-72
2023/03/28 13:30:36;;;;;;;;;;;;;;;;;;5115969;28;987;-72
2023/03/28 13:33:07;;;;;;;;;;;;;;;;;;5113481;28;1112;-72
2023/03/28 13:35:43;;;;;;;;;;;;;;;;;;5114264;28;1362;-72
2023/03/28 13:38:35;;;;;;;;;;;;;;;;;;5113574;28;1898;-72
2023/03/28 13:41:00;;;;;;;;;;;;;;;;;;5098474;28;1130;-72
2023/03/28 13:43:36;;;;;;;;;;;;;;;;;;5113275;28;1232;-72
2023/03/28 13:46:11;;;;;;;;;;;;;;;;;;5114010;28;1136;-73
2023/03/28 13:48:44;;;;;;;;;;;;;;;;;;5115275;28;900;-74
2023/03/28 13:51:14;;;;;;;;;;;;;;;;;;5114119;28;1296;-73
2023/03/28 13:53:39;;;;;;;;;;;;;;;;;;5115187;28;1018;-74
2023/03/28 13:56:13;;;;;;;;;;;;;;;;;;5113580;28;1235;-74
2023/03/28 13:58:38;;;;;;;;;;;;;;;;;;5115370;28;1902;-74
2023/03/28 14:01:12;;;;;;;;;;;;;;;;;;5113045;28;1250;-73
2023/03/28 14:03:40;;;;;;;;;;;;;;;;;;5093592;28;1245;-74
2023/03/28 14:06:19;;;;;;;;;;;;;;;;;;5093324;28;1229;-74
2023/03/28 14:08:45;;;;;;;;;;;;;;;;;;5092735;28;1146;-75
2023/03/28 14:11:11;;;;;;;;;;;;;;;;;;5093642;28;1189;-74
2023/03/28 14:13:37;;;;;;;;;;;;;;;;;;5076396;28;1494;-74
2023/03/28 14:16:04;;;;;;;;;;;;;;;;;;5076292;28;1225;-74
2023/03/28 14:18:56;;;;;;;;;;;;;;;;;;5099323;28;1907;-74
2023/03/28 14:21:22;;;;;;;;;;;;;;;;;;5092881;28;1408;-74
2023/03/28 14:23:54;;;;;;;;;;;;;;;;;;5093939;28;1270;-74
2023/03/28 14:26:22;;;;;;;;;;;;;;;;;;5094921;28;852;-74
2023/03/28 14:28:49;;;;;;;;;;;;;;;;;;5095021;28;978;-74
2023/03/28 14:31:27;;;;;;;;;;;;;;;;;;5094519;28;994;-74
2023/03/28 14:33:52;;;;;;;;;;;;;;;;;;5094951;28;925;-74
2023/03/28 14:36:18;;;;;;;;;;;;;;;;;;5076213;28;1684;-74
2023/03/28 14:38:43;;;;;;;;;;;;;;;;;;5093127;28;1907;-74
2023/03/28 14:41:11;;;;;;;;;;;;;;;;;;5094977;28;847;-73
2023/03/28 14:43:38;;;;;;;;;;;;;;;;;;5093187;28;1487;-74
2023/03/28 14:46:05;;;;;;;;;;;;;;;;;;5093558;28;1254;-74
2023/03/28 14:48:31;;;;;;;;;;;;;;;;;;5092511;28;1070;-74
2023/03/28 14:50:57;;;;;;;;;;;;;;;;;;5093059;28;903;-73
2023/03/28 14:53:26;;;;;;;;;;;;;;;;;;5092956;28;1166;-74
2023/03/28 14:55:53;;;;;;;;;;;;;;;;;;5093248;28;1257;-74
2023/03/28 14:58:21;;;;;;;;;;;;;;;;;;5101696;28;1922;-73
2023/03/28 15:00:47;;;;;;;;;;;;;;;;;;5092798;28;1324;-75
2023/03/28 15:03:21;;;;;;;;;;;;;;;;;;5094178;28;979;-75
2023/03/28 15:05:48;;;;;;;;;;;;;;;;;;5092360;28;1186;-74
2023/03/28 15:08:33;;;;;;;;;;;;;;;;;;5092894;28;1107;-75
2023/03/28 15:11:04;;;;;;;;;;;;;;;;;;5092661;28;1238;-75
2023/03/28 15:13:36;;;;;;;;;;;;;;;;;;5092390;28;1187;-75
2023/03/28 15:16:04;;;;;;;;;;;;;;;;;;5092422;28;1258;-74
2023/03/28 15:18:32;;;;;;;;;;;;;;;;;;5092445;28;1910;-75
2023/03/28 15:20:59;;;;;;;;;;;;;;;;;;5076106;28;1202;-75
2023/03/28 15:23:33;;;;;;;;;;;;;;;;;;5092993;28;1289;-75
2023/03/28 15:26:02;;;;;;;;;;;;;;;;;;5094064;28;844;-75
2023/03/28 15:28:28;;;;;;;;;;;;;;;;;;5092553;28;1282;-75
2023/03/28 15:30:56;;;;;;;;;;;;;;;;;;5093070;28;1178;-75
2023/03/28 15:33:24;;;;;;;;;;;;;;;;;;5092154;28;1218;-76
2023/03/28 15:36:02;;;;;;;;;;;;;;;;;;5091049;28;1435;-74
2023/03/28 15:38:27;;;;;;;;;;;;;;;;;;5093715;28;1914;-74
2023/03/28 15:41:08;;;;;;;;;;;;;;;;;;5092075;28;1269;-74
2023/03/28 15:43:38;;;;;;;;;;;;;;;;;;5091863;28;1401;-74
2023/03/28 15:46:26;;;;;;;;;;;;;;;;;;5093132;28;833;-74
2023/03/28 15:48:55;;;;;;;;;;;;;;;;;;5092819;28;1449;-74
2023/03/28 15:51:21;;;;;;;;;;;;;;;;;;5092137;28;1166;-73
2023/03/28 15:53:47;;;;;;;;;;;;;;;;;;5093758;28;820;-74
2023/03/28 15:56:21;;;;;;;;;;;;;;;;;;5094406;28;880;-74
2023/03/28 15:58:47;;;;;;;;;;;;;;;;;;5092233;28;1957;-73
2023/03/28 16:01:18;;;;;;;;;;;;;;;;;;5092084;28;789;-74
2023/03/28 16:03:44;;;;;;;;;;;;;;;;;;5092634;28;1245;-74
2023/03/28 16:06:09;;;;;;;;;;;;;;;;;;5093700;28;845;-73
2023/03/28 16:08:38;;;;;;;;;;;;;;;;;;5091387;28;1233;-74
2023/03/28 16:11:03;;;;;;;;;;;;;;;;;;5093393;28;825;-74
2023/03/28 16:13:28;;;;;;;;;;;;;;;;;;5075011;28;1150;-73
2023/03/28 16:15:54;;;;;;;;;;;;;;;;;;5093632;28;868;-74
2023/03/28 16:18:20;;;;;;;;;;;;;;;;;;5093421;28;1963;-74
2023/03/28 16:20:45;;;;;;;;;;;;;;;;;;5092056;28;1335;-74
2023/03/28 16:23:12;;;;;;;;;;;;;;;;;;5093027;28;908;-73
2023/03/28 16:25:39;;;;;;;;;;;;;;;;;;5075015;28;1316;-74
2023/03/28 16:28:04;;;;;;;;;;;;;;;;;;5091576;28;1202;-74
2023/03/28 16:30:34;;;;;;;;;;;;;;;;;;5090994;28;1166;-74
2023/03/28 16:32:59;;;;;;;;;;;;;;;;;;5093624;28;1229;-74
2023/03/28 16:35:27;;;;;;;;;;;;;;;;;;5095520;28;1245;-74
2023/03/28 16:37:52;;;;;;;;;;;;;;;;;;5097052;28;849;-74
2023/03/28 16:40:19;;;;;;;;;;;;;;;;;;5095744;28;1886;-74
2023/03/28 16:42:44;;;;;;;;;;;;;;;;;;5095650;28;1163;-74
2023/03/28 16:45:11;;;;;;;;;;;;;;;;;;5078494;28;1321;-74
2023/03/28 16:47:37;;;;;;;;;;;;;;;;;;5095903;28;837;-74
2023/03/28 16:50:07;;;;;;;;;;;;;;;;;;5094451;28;1296;-74
2023/03/28 16:52:37;;;;;;;;;;;;;;;;;;5095548;28;900;-75
2023/03/28 16:55:03;;;;;;;;;;;;;;;;;;5095759;28;896;-74
2023/03/28 16:57:28;;;;;;;;;;;;;;;;;;5094032;28;1272;-74
2023/03/28 16:59:53;;;;;;;;;;;;;;;;;;5094021;28;1906;-74
2023/03/28 17:02:18;;;;;;;;;;;;;;;;;;5094229;28;1057;-74
2023/03/28 17:04:49;;;;;;;;;;;;;;;;;;5094060;28;1312;-74
2023/03/28 17:07:14;;;;;;;;;;;;;;;;;;5094504;28;1304;-74
2023/03/28 17:09:41;;;;;;;;;;;;;;;;;;5093933;28;789;-74
2023/03/28 17:12:07;;;;;;;;;;;;;;;;;;5076844;28;1317;-74
2023/03/28 17:14:32;;;;;;;;;;;;;;;;;;5093621;28;1265;-74
2023/03/28 17:16:57;;;;;;;;;;;;;;;;;;5094926;28;911;-75
2023/03/28 17:19:23;;;;;;;;;;;;;;;;;;5095073;28;1926;-75
2023/03/28 17:21:49;;;;;;;;;;;;;;;;;;5093544;28;892;-74